createdAt,value
2022-11-30T00:01:15.584Z,-1.20
2022-11-30T00:03:42.465Z,-1.23
2022-11-30T00:06:10.043Z,-1.27
2022-11-30T00:08:36.765Z,-1.28
2022-11-30T00:11:13.992Z,-1.30
2022-11-30T00:13:40.894Z,-1.30
2022-11-30T00:16:08.271Z,-1.31
2022-11-30T00:18:35.457Z,-1.31
2022-11-30T00:21:02.690Z,-1.32
2022-11-30T00:23:36.651Z,-1.34
2022-11-30T00:26:04.596Z,-1.35
2022-11-30T00:28:31.614Z,-1.37
2022-11-30T00:31:05.957Z,-1.37
2022-11-30T00:33:33.321Z,-1.38
2022-11-30T00:36:01.416Z,-1.38
2022-11-30T00:38:28.304Z,-1.38
2022-11-30T00:40:56.617Z,-1.38
2022-11-30T00:43:23.748Z,-1.38
2022-11-30T00:45:50.516Z,-1.38
2022-11-30T00:48:17.268Z,-1.40
2022-11-30T00:50:44.054Z,-1.42
2022-11-30T00:53:10.715Z,-1.43
2022-11-30T00:55:37.483Z,-1.46
2022-11-30T00:58:04.350Z,-1.45
2022-11-30T01:00:30.988Z,-1.47
2022-11-30T01:02:59.297Z,-1.49
2022-11-30T01:05:26.232Z,-1.51
2022-11-30T01:07:52.908Z,-1.52
2022-11-30T01:10:19.785Z,-1.52
2022-11-30T01:12:46.459Z,-1.51
2022-11-30T01:15:13.155Z,-1.51
2022-11-30T01:17:39.869Z,-1.57
2022-11-30T01:20:08.902Z,-1.52
2022-11-30T01:22:35.713Z,-1.52
2022-11-30T01:25:02.443Z,-1.52
2022-11-30T01:27:29.212Z,-1.52
2022-11-30T01:29:55.924Z,-1.53
2022-11-30T01:32:22.669Z,-1.53
2022-11-30T01:34:49.649Z,-1.53
2022-11-30T01:37:16.423Z,-1.52
2022-11-30T01:39:43.299Z,-1.50
2022-11-30T01:42:17.034Z,-1.49
2022-11-30T01:44:54.489Z,-1.47
2022-11-30T01:47:24.880Z,-1.46
2022-11-30T01:49:57.862Z,-1.45
2022-11-30T01:52:33.156Z,-1.45
2022-11-30T01:55:02.625Z,-1.44
2022-11-30T01:57:51.116Z,-1.44
2022-11-30T02:00:18.349Z,-1.44
2022-11-30T02:02:57.009Z,-1.41
2022-11-30T02:05:24.005Z,-1.39
2022-11-30T02:07:50.901Z,-1.38
2022-11-30T02:10:19.655Z,-1.37
2022-11-30T02:12:55.512Z,-1.36
2022-11-30T02:15:22.837Z,-1.36
2022-11-30T02:18:11.813Z,-1.36
2022-11-30T02:20:44.059Z,-1.36
2022-11-30T02:24:12.509Z,-1.35
2022-11-30T02:26:51.506Z,-1.34
2022-11-30T02:29:22.551Z,-1.34
2022-11-30T02:31:56.967Z,-1.34
2022-11-30T02:34:25.344Z,-1.32
2022-11-30T02:36:52.049Z,-1.29
2022-11-30T02:39:21.191Z,-1.27
2022-11-30T02:41:47.967Z,-1.26
2022-11-30T02:44:14.690Z,-1.27
2022-11-30T02:47:02.313Z,-1.26
2022-11-30T02:49:53.629Z,-1.28
2022-11-30T02:52:22.308Z,-1.32
2022-11-30T02:54:49.288Z,-1.30
2022-11-30T02:57:16.274Z,-1.32
2022-11-30T02:59:42.871Z,-1.35
2022-11-30T03:02:09.632Z,-1.38
2022-11-30T03:04:36.340Z,-1.42
2022-11-30T03:07:03.150Z,-1.43
2022-11-30T03:09:29.772Z,-1.45
2022-11-30T03:11:56.530Z,-1.47
2022-11-30T03:14:23.355Z,-1.46
2022-11-30T03:16:50.049Z,-1.46
2022-11-30T03:19:16.763Z,-1.47
2022-11-30T03:21:43.501Z,-1.49
2022-11-30T03:24:10.305Z,-1.52
2022-11-30T03:26:37.009Z,-1.55
2022-11-30T03:29:03.812Z,-1.58
2022-11-30T03:31:30.531Z,-1.59
2022-11-30T03:33:57.435Z,-1.60
2022-11-30T03:36:24.115Z,-1.60
2022-11-30T03:38:50.900Z,-1.62
2022-11-30T03:41:17.836Z,-1.64
2022-11-30T03:43:45.283Z,-1.64
2022-11-30T03:46:12.271Z,-1.64
2022-11-30T03:48:41.351Z,-1.64
2022-11-30T03:51:08.115Z,-1.65
2022-11-30T03:53:34.831Z,-1.65
2022-11-30T03:56:04.847Z,-1.66
2022-11-30T03:58:31.696Z,-1.67
2022-11-30T04:01:08.583Z,-1.68
2022-11-30T04:03:35.494Z,-1.70
2022-11-30T04:06:02.657Z,-1.71
2022-11-30T04:08:29.461Z,-1.72
2022-11-30T04:10:56.568Z,-1.72
2022-11-30T04:13:23.491Z,-1.71
2022-11-30T04:15:50.721Z,-1.72
2022-11-30T04:18:17.749Z,-1.70
2022-11-30T04:20:44.529Z,-1.71
2022-11-30T04:23:11.669Z,-1.71
2022-11-30T04:25:39.358Z,-1.70
2022-11-30T04:28:06.270Z,-1.68
2022-11-30T04:30:33.251Z,-1.67
2022-11-30T04:32:59.951Z,-1.67
2022-11-30T04:35:26.713Z,-1.68
2022-11-30T04:37:53.429Z,-1.67
2022-11-30T04:40:20.230Z,-1.67
2022-11-30T04:42:46.899Z,-1.69
2022-11-30T04:45:13.674Z,-1.71
2022-11-30T04:47:40.380Z,-1.72
2022-11-30T04:50:07.762Z,-1.74
2022-11-30T04:52:34.713Z,-1.74
2022-11-30T04:57:52.784Z,-1.71
2022-11-30T05:00:19.901Z,-1.70
2022-11-30T05:02:52.488Z,-1.68
2022-11-30T05:05:20.031Z,-1.66
2022-11-30T05:07:49.457Z,-1.65
2022-11-30T05:10:16.504Z,-1.65
2022-11-30T05:12:43.224Z,-1.67
2022-11-30T05:15:10.408Z,-1.66
2022-11-30T05:17:37.173Z,-1.67
2022-11-30T05:20:04.069Z,-1.66
2022-11-30T05:22:30.771Z,-1.64
2022-11-30T05:24:57.494Z,-1.65
2022-11-30T05:27:24.197Z,-1.66
2022-11-30T05:29:50.915Z,-1.68
2022-11-30T05:32:17.706Z,-1.72
2022-11-30T05:34:50.618Z,-1.75
2022-11-30T05:37:18.814Z,-1.75
2022-11-30T05:39:45.694Z,-1.78
2022-11-30T05:42:12.382Z,-1.78
2022-11-30T05:44:39.088Z,-1.78
2022-11-30T05:47:05.981Z,-1.77
2022-11-30T05:49:32.777Z,-1.76
2022-11-30T05:51:59.483Z,-1.77
2022-11-30T05:54:26.216Z,-1.81
2022-11-30T05:56:55.076Z,-1.86
2022-11-30T05:59:22.716Z,-1.88
2022-11-30T06:01:51.975Z,-1.92
2022-11-30T06:04:18.900Z,-1.94
2022-11-30T06:06:45.863Z,-1.96
2022-11-30T06:09:12.669Z,-1.99
2022-11-30T06:11:39.284Z,-2.03
2022-11-30T06:14:06.091Z,-2.06
2022-11-30T06:16:32.788Z,-2.07
2022-11-30T06:18:59.651Z,-2.09
2022-11-30T06:21:26.389Z,-2.07
2022-11-30T06:23:53.103Z,-2.07
2022-11-30T06:26:19.861Z,-2.07
2022-11-30T06:28:48.502Z,-2.06
2022-11-30T06:31:15.885Z,-2.05
2022-11-30T06:33:42.832Z,-2.04
2022-11-30T06:36:09.572Z,-2.03
2022-11-30T06:38:36.400Z,-2.03
2022-11-30T06:41:07.985Z,-2.06
2022-11-30T06:43:38.076Z,-2.09
2022-11-30T06:46:05.475Z,-2.10
2022-11-30T06:48:32.591Z,-2.10
2022-11-30T06:51:00.373Z,-2.10
2022-11-30T06:53:27.474Z,-2.10
2022-11-30T06:55:54.200Z,-2.09
2022-11-30T06:58:20.975Z,-2.08
2022-11-30T07:00:47.838Z,-2.05
2022-11-30T07:03:14.548Z,-2.03
2022-11-30T13:27:18.911Z,-2.49
2022-11-30T13:30:19.403Z,-2.33
2022-11-30T13:32:57.897Z,-2.28
2022-11-30T13:35:28.296Z,-2.23
2022-11-30T13:41:06.517Z,-2.15
2022-11-30T13:43:47.962Z,-2.14
2022-11-30T13:46:16.064Z,-2.13
2022-11-30T13:48:43.899Z,-2.16
2022-11-30T13:51:10.740Z,-2.14
2022-11-30T13:53:38.959Z,-2.15
2022-11-30T13:56:17.871Z,-2.15
2022-11-30T13:59:23.295Z,-2.20
2022-11-30T14:01:51.222Z,-2.24
2022-11-30T14:04:17.956Z,-2.25
2022-11-30T14:06:55.492Z,-2.26
2022-11-30T14:09:37.215Z,-2.27
2022-11-30T14:12:32.602Z,-2.28
2022-11-30T14:15:00.099Z,-2.25
2022-11-30T14:17:27.841Z,-2.22
2022-11-30T14:20:15.560Z,-2.19
2022-11-30T14:22:42.282Z,-2.16
2022-11-30T14:25:13.246Z,-2.17
2022-11-30T14:27:39.980Z,-2.17
2022-11-30T14:30:07.291Z,-2.21
2022-11-30T14:32:38.033Z,-2.18
2022-11-30T14:35:11.758Z,-2.20
2022-11-30T14:37:55.679Z,-2.24
2022-11-30T14:40:23.725Z,-2.27
2022-11-30T14:42:52.726Z,-2.30
2022-11-30T14:45:21.392Z,-2.33
2022-11-30T14:47:51.565Z,-2.36
2022-11-30T14:50:23.679Z,-2.37
2022-11-30T14:53:15.316Z,-2.38
2022-11-30T14:55:53.044Z,-2.38
2022-11-30T14:58:22.951Z,-2.40
2022-11-30T15:00:49.804Z,-2.39
2022-11-30T15:03:28.715Z,-2.39
2022-11-30T15:06:04.908Z,-2.38
2022-11-30T15:08:48.859Z,-2.37
2022-11-30T15:11:16.207Z,-2.39
2022-11-30T15:13:50.377Z,-2.43
2022-11-30T15:16:22.041Z,-2.45
2022-11-30T15:18:49.058Z,-2.46
2022-11-30T15:21:26.661Z,-2.46
2022-11-30T15:23:57.932Z,-2.47
2022-11-30T15:26:36.842Z,-2.46
2022-11-30T15:29:08.953Z,-2.46
2022-11-30T15:31:37.585Z,-2.46
2022-11-30T15:34:05.040Z,-2.46
2022-11-30T15:36:35.888Z,-2.44
2022-11-30T15:39:03.596Z,-2.42
2022-11-30T15:41:30.352Z,-2.39
2022-11-30T15:43:57.308Z,-2.38
2022-11-30T15:46:34.553Z,-2.37
2022-11-30T15:49:16.233Z,-2.35
2022-11-30T15:51:47.328Z,-2.34
2022-11-30T15:54:15.316Z,-2.32
2022-11-30T15:56:42.045Z,-2.31
2022-11-30T15:59:11.866Z,-2.31
2022-11-30T16:02:16.399Z,-2.32
2022-11-30T16:04:58.599Z,-2.32
2022-11-30T16:07:26.712Z,-2.32
2022-11-30T16:10:03.618Z,-2.34
2022-11-30T16:12:30.451Z,-2.35
2022-11-30T16:14:57.215Z,-2.36
2022-11-30T16:17:23.938Z,-2.36
2022-11-30T16:19:50.690Z,-2.37
2022-11-30T16:22:17.383Z,-2.38
2022-11-30T16:24:44.085Z,-2.37
2022-11-30T16:27:18.199Z,-2.36
2022-11-30T16:29:50.476Z,-2.37
2022-11-30T16:32:19.264Z,-2.37
2022-11-30T16:34:47.429Z,-2.38
2022-11-30T16:37:14.745Z,-2.37
2022-11-30T16:39:41.483Z,-2.38
2022-11-30T16:42:11.772Z,-2.41
2022-11-30T16:44:38.490Z,-2.42
2022-11-30T16:47:05.215Z,-2.43
2022-11-30T16:49:33.284Z,-2.42
2022-11-30T16:52:00.029Z,-2.42
2022-11-30T16:54:27.125Z,-2.40
2022-11-30T16:56:53.818Z,-2.38
2022-11-30T16:59:20.537Z,-2.35
2022-11-30T17:01:48.615Z,-2.32
2022-11-30T17:04:22.881Z,-2.33
2022-11-30T17:06:51.079Z,-2.27
2022-11-30T17:09:18.222Z,-2.24
2022-11-30T17:11:45.647Z,-2.23
2022-11-30T17:14:13.078Z,-2.20
2022-11-30T17:16:40.442Z,-2.19
2022-11-30T17:19:07.769Z,-2.19
2022-11-30T17:21:37.305Z,-2.19
2022-11-30T17:24:04.546Z,-2.21
2022-11-30T17:26:31.252Z,-2.22
2022-11-30T17:28:57.989Z,-2.23
2022-11-30T17:31:24.719Z,-2.23
2022-11-30T17:33:51.482Z,-2.22
2022-11-30T17:36:18.971Z,-2.21
2022-11-30T17:38:45.780Z,-2.20
2022-11-30T17:41:18.553Z,-2.18
2022-11-30T17:43:45.788Z,-2.15
2022-11-30T17:46:15.673Z,-2.13
2022-11-30T17:48:43.126Z,-2.10
2022-11-30T17:51:09.989Z,-2.07
2022-11-30T17:53:40.002Z,-2.03
2022-11-30T17:56:07.897Z,-2.03
2022-11-30T17:58:41.445Z,-2.04
2022-11-30T18:01:16.273Z,-2.04
2022-11-30T18:03:43.440Z,-2.05
2022-11-30T18:06:10.164Z,-2.06
2022-11-30T18:08:37.964Z,-2.06
2022-11-30T18:11:09.909Z,-2.07
2022-11-30T18:13:36.762Z,-2.08
2022-11-30T18:16:13.658Z,-2.09
2022-11-30T18:18:45.778Z,-2.10
2022-11-30T18:21:15.863Z,-2.11
2022-11-30T18:23:42.555Z,-2.11
2022-11-30T18:26:12.130Z,-2.11
2022-11-30T18:28:38.847Z,-2.09
2022-11-30T18:31:06.692Z,-2.06
2022-11-30T18:33:34.216Z,-2.04
2022-11-30T18:36:01.195Z,-2.02
2022-11-30T18:38:31.518Z,-2.00
2022-11-30T18:41:01.015Z,-1.98
2022-11-30T18:43:27.804Z,-1.98
2022-11-30T18:45:54.614Z,-1.99
2022-11-30T18:48:21.307Z,-2.00
2022-11-30T18:50:48.050Z,-2.02
2022-11-30T18:53:18.266Z,-2.04
2022-11-30T18:55:45.420Z,-2.07
2022-11-30T18:58:12.173Z,-2.08
2022-11-30T19:00:39.075Z,-2.08
2022-11-30T19:03:07.077Z,-2.09
2022-11-30T22:51:38.158Z,-2.45
2022-11-30T22:54:05.229Z,-2.34
2022-11-30T22:56:33.731Z,-2.37
2022-11-30T22:59:00.919Z,-2.26
2022-11-30T23:01:29.559Z,-2.24
2022-11-30T23:03:57.256Z,-2.20
2022-11-30T23:06:24.149Z,-2.18
2022-11-30T23:08:50.907Z,-2.17
2022-11-30T23:11:20.206Z,-2.16
2022-11-30T23:13:46.941Z,-2.16
2022-11-30T23:16:14.160Z,-2.15
2022-11-30T23:18:43.458Z,-2.16
2022-11-30T23:21:15.040Z,-2.18
2022-11-30T23:23:42.216Z,-2.20
2022-11-30T23:26:12.828Z,-2.20
2022-11-30T23:28:41.203Z,-2.22
2022-11-30T23:31:09.510Z,-2.25
2022-11-30T23:33:37.108Z,-2.27
2022-11-30T23:36:04.987Z,-2.30
2022-11-30T23:38:31.864Z,-2.36
2022-11-30T23:41:05.347Z,-2.40
2022-11-30T23:43:32.848Z,-2.42
2022-11-30T23:45:59.542Z,-2.43
2022-11-30T23:48:26.436Z,-2.45
2022-11-30T23:50:53.682Z,-2.48
2022-11-30T23:53:20.438Z,-2.48
2022-11-30T23:55:47.168Z,-2.50
2022-11-30T23:58:13.855Z,-2.50
